Time;durP1;ratioP1;P1;durP2;ratioP2;P2;SDS_P1;SDS_P2;PMS_P1;PMS_P2;Temp;Humidity;BMP_temperature;BMP_pressure;BME280_temperature;BME280_humidity;BME280_pressure;Samples;Min_cycle;Max_cycle;Signal;HPM_P1;HPM_P2
2023/01/29 00:01:46;;;;;;;44.10;37.22;;;;;;;-1.78;100.00;96338.03;5085665;28;20024;-64
2023/01/29 00:04:11;;;;;;;41.03;36.55;;;;;;;-1.78;100.00;96332.88;5088196;28;20012;-64
2023/01/29 00:06:36;;;;;;;37.85;33.72;;;;;;;-1.80;100.00;96332.06;5087385;28;20134;-64
2023/01/29 00:09:02;;;;;;;38.65;34.08;;;;;;;-1.80;100.00;96332.06;5088382;28;20023;-64
2023/01/29 00:11:27;;;;;;;39.40;34.90;;;;;;;-1.78;100.00;96332.00;5086979;28;20107;-64
2023/01/29 00:13:53;;;;;;;40.58;36.17;;;;;;;-1.81;100.00;96321.78;5086641;28;20511;-64
2023/01/29 00:16:19;;;;;;;40.22;35.97;;;;;;;-1.80;100.00;96326.91;5086998;28;20103;-64
2023/01/29 00:18:44;;;;;;;42.28;34.72;;;;;;;-1.76;100.00;96322.50;5088950;28;20497;-59
2023/01/29 00:21:11;;;;;;;42.05;36.90;;;;;;;-1.76;100.00;96325.91;5084268;28;20032;-59
2023/01/29 00:23:37;;;;;;;38.30;34.05;;;;;;;-1.74;100.00;96323.28;5085278;28;20111;-59
2023/01/29 00:26:02;;;;;;;42.95;36.83;;;;;;;-1.81;100.00;96322.63;5088070;28;20107;-59
2023/01/29 00:28:28;;;;;;;45.13;37.40;;;;;;;-1.80;100.00;96315.72;5085891;28;20059;-59
2023/01/29 00:30:53;;;;;;;45.75;36.75;;;;;;;-1.84;100.00;96319.31;5087527;28;20113;-60
2023/01/29 00:33:18;;;;;;;40.85;36.30;;;;;;;-1.84;100.00;96317.59;5084838;28;20028;-59
2023/01/29 00:35:44;;;;;;;48.55;41.60;;;;;;;-1.80;100.00;96319.16;5081064;28;20402;-60
2023/01/29 00:38:09;;;;;;;43.92;36.75;;;;;;;-1.80;100.00;96328.63;5079579;28;20102;-65
2023/01/29 00:46:08;;;;;;;46.65;36.75;;;;;;;-1.92;100.00;96320.41;5088082;28;20073;-66
2023/01/29 00:48:34;;;;;;;43.50;36.95;;;;;;;-1.89;100.00;96327.19;5086988;28;20142;-65
2023/01/29 00:51:00;;;;;;;44.85;38.10;;;;;;;-1.91;100.00;96327.25;5082814;28;20028;-66
2023/01/29 00:53:26;;;;;;;41.92;37.45;;;;;;;-1.88;100.00;96331.47;5066113;28;20020;-65
2023/01/29 00:55:52;;;;;;;44.88;38.85;;;;;;;-1.88;100.00;96334.03;5097253;28;20067;-65
2023/01/29 00:58:21;;;;;;;44.55;37.75;;;;;;;-1.92;100.00;96324.72;5084696;28;20036;-59
2023/01/29 01:00:49;;;;;;;47.20;39.92;;;;;;;-1.94;100.00;96331.66;5065224;28;20039;-66
2023/01/29 01:03:16;;;;;;;44.55;38.97;;;;;;;-1.95;100.00;96324.81;5087659;28;20024;-65
2023/01/29 01:05:41;;;;;;;40.78;36.13;;;;;;;-1.92;100.00;96335.03;5080162;28;20117;-66
2023/01/29 01:10:19;;;;;;;42.42;37.58;;;;;;;-1.92;100.00;96337.63;5087893;28;20238;-65
2023/01/29 01:11:02;;;;;;;43.10;37.42;;;;;;;-1.91;100.00;96334.16;5079977;28;20035;-65
2023/01/29 01:13:30;;;;;;;45.20;37.00;;;;;;;-1.95;100.00;96335.13;5076324;28;20035;-65
2023/01/29 01:15:55;;;;;;;44.38;36.58;;;;;;;-1.97;100.00;96336.94;5076587;28;20025;-66
2023/01/29 01:18:21;;;;;;;45.33;36.65;;;;;;;-1.96;100.00;96346.34;5077007;28;20032;-62
2023/01/29 01:20:50;;;;;;;40.85;36.42;;;;;;;-1.93;100.00;96349.69;5079513;28;20016;-59
2023/01/29 01:23:18;;;;;;;41.47;35.42;;;;;;;-1.90;100.00;96347.00;5073597;28;20028;-59
2023/01/29 01:25:45;;;;;;;43.45;36.67;;;;;;;-1.85;100.00;96349.47;5081303;28;20021;-59
2023/01/29 01:28:11;;;;;;;41.13;35.88;;;;;;;-1.83;100.00;96347.66;5081919;28;20440;-60
2023/01/29 01:30:36;;;;;;;42.72;36.92;;;;;;;-1.81;100.00;96348.47;5082176;28;20016;-59
2023/01/29 01:33:02;;;;;;;45.45;38.20;;;;;;;-1.84;100.00;96350.28;5080350;28;20395;-59
2023/01/29 01:35:27;;;;;;;49.22;41.15;;;;;;;-1.87;100.00;96348.66;5078253;28;20035;-65
2023/01/29 01:37:52;;;;;;;47.03;39.25;;;;;;;-1.93;100.00;96354.84;5083298;28;20028;-66
2023/01/29 01:40:20;;;;;;;47.47;40.30;;;;;;;-1.94;100.00;96347.16;5075606;28;20158;-63
2023/01/29 01:42:54;;;;;;;41.78;36.72;;;;;;;-1.75;100.00;96348.25;5089623;28;20077;-62
2023/01/29 01:45:34;;;;;;;44.42;38.90;;;;;;;-1.88;100.00;96347.81;5086459;28;20519;-63
2023/01/29 01:48:17;;;;;;;49.15;40.03;;;;;;;-1.92;100.00;96351.38;5090691;28;20059;-62
2023/01/29 01:50:44;;;;;;;43.88;37.22;;;;;;;-1.92;100.00;96345.38;5086102;28;20398;-63
2023/01/29 01:53:17;;;;;;;42.50;37.92;;;;;;;-1.92;100.00;96347.94;5089439;28;20093;-63
2023/01/29 01:55:57;;;;;;;48.40;39.00;;;;;;;-1.92;100.00;96345.38;5080795;28;20478;-66
2023/01/29 01:58:26;;;;;;;43.28;35.92;;;;;;;-1.91;100.00;96352.22;5086314;28;20132;-68
2023/01/29 02:00:52;;;;;;;40.22;35.85;;;;;;;-1.91;100.00;96347.06;5083533;28;20612;-68
2023/01/29 02:11:40;;;;;;;42.33;37.42;;;;;;;-1.94;100.00;96352.31;5084104;28;20047;-68
2023/01/29 02:14:05;;;;;;;44.90;38.00;;;;;;;-1.98;100.00;96354.16;5081229;28;20028;-61
2023/01/29 02:16:34;;;;;;;43.33;38.20;;;;;;;-1.99;100.00;96354.22;5078435;28;20119;-68
2023/01/29 02:19:00;;;;;;;43.67;38.95;;;;;;;-2.01;100.00;96369.72;5085405;28;20035;-59
2023/01/29 02:21:31;;;;;;;45.33;40.42;;;;;;;-2.00;100.00;96374.00;5082720;28;20020;-59
2023/01/29 02:24:43;;;;;;;44.53;39.72;;;;;;;-1.99;100.00;96374.84;5063914;28;20025;-59
2023/01/29 02:27:18;;;;;;;45.85;37.90;;;;;;;-1.62;100.00;96373.69;5077451;28;20127;-59
2023/01/29 02:30:04;;;;;;;43.20;37.83;;;;;;;-1.50;100.00;96375.84;5087839;28;20088;-59
2023/01/29 02:32:57;;;;;;;44.30;38.53;;;;;;;-1.82;100.00;96377.75;5086983;28;20106;-68
2023/01/29 02:35:36;;;;;;;41.97;37.55;;;;;;;-2.00;100.00;96386.91;5085681;28;20510;-62
2023/01/29 02:38:20;;;;;;;48.53;41.75;;;;;;;-2.07;100.00;96394.00;5082722;28;20499;-65
2023/01/29 02:40:52;;;;;;;44.67;39.75;;;;;;;-2.02;100.00;96397.28;5086190;28;20036;-65
2023/01/29 02:43:29;;;;;;;45.80;39.85;;;;;;;-2.00;100.00;96396.38;5077163;28;20127;-66
2023/01/29 02:46:32;;;;;;;46.45;40.35;;;;;;;-2.08;100.00;96391.47;5076725;28;20021;-65
2023/01/29 02:49:19;;;;;;;42.72;38.20;;;;;;;-2.07;100.00;96394.00;5076945;28;20478;-65
2023/01/29 02:52:03;;;;;;;47.72;40.20;;;;;;;-2.05;100.00;96404.25;5086450;28;20074;-65
2023/01/29 02:54:47;;;;;;;44.22;39.47;;;;;;;-2.01;100.00;96418.75;5084263;28;20028;-68
2023/01/29 02:57:16;;;;;;;44.08;38.83;;;;;;;-1.99;100.00;96405.81;5085415;28;20068;-68
2023/01/29 03:00:17;;;;;;;44.95;39.38;;;;;;;-2.08;100.00;96410.38;5084923;28;20501;-68
2023/01/29 03:02:51;;;;;;;41.20;36.58;;;;;;;-2.09;100.00;96416.44;5086046;28;20086;-67
2023/01/29 03:05:26;;;;;;;42.97;38.15;;;;;;;-2.04;100.00;96417.13;5089548;28;20098;-68
2023/01/29 03:07:57;;;;;;;42.50;37.83;;;;;;;-2.03;100.00;96421.41;5084371;28;20038;-69
2023/01/29 03:10:27;;;;;;;28.58;24.80;;;;;;;-2.05;100.00;96415.44;5078658;28;20111;-68
2023/01/29 03:12:59;;;;;;;26.40;23.65;;;;;;;-2.09;98.03;96419.03;5082727;28;20020;-63
2023/01/29 03:15:30;;;;;;;23.55;21.20;;;;;;;-2.09;95.76;96423.31;5077425;28;20025;-62
2023/01/29 03:18:16;;;;;;;24.38;21.90;;;;;;;-1.99;93.67;96422.16;5082786;28;20041;-62
2023/01/29 03:20:50;;;;;;;;;;;;;;;-2.02;90.08;96425.66;5080426;28;20070;-62
2023/01/29 03:32:04;;;;;;;22.38;19.98;;;;;;;-1.97;87.25;96424.69;5077631;28;20038;-68
2023/01/29 03:34:37;;;;;;;21.33;19.20;;;;;;;-1.97;86.24;96427.25;5082118;28;20094;-63
2023/01/29 03:37:08;;;;;;;21.70;19.30;;;;;;;-2.01;85.68;96429.09;5061803;28;20078;-63
2023/01/29 03:39:35;;;;;;;24.30;18.73;;;;;;;-1.85;84.66;96432.06;5079580;28;20085;-63
2023/01/29 03:42:39;;;;;;;22.90;20.60;;;;;;;-2.04;85.15;96434.34;5076189;28;20111;-63
2023/01/29 03:45:18;;;;;;;22.75;20.30;;;;;;;-2.17;85.84;96433.88;5081167;28;20165;-62
2023/01/29 03:48:02;;;;;;;22.17;19.85;;;;;;;-2.21;85.67;96450.34;5084028;28;20028;-62
2023/01/29 03:50:27;;;;;;;22.45;19.30;;;;;;;-2.25;84.82;96451.31;5085405;28;20035;-64
2023/01/29 03:53:23;;;;;;;21.30;19.20;;;;;;;-2.26;84.32;96459.94;5067881;28;20033;-64
2023/01/29 03:55:53;;;;;;;;;;;;;;;-2.30;85.75;96456.59;5087114;28;20085;-69
2023/01/29 03:58:31;;;;;;;20.75;18.50;;;;;;;-2.27;85.02;96459.09;5085521;28;19920;-68
2023/01/29 04:01:02;;;;;;;21.38;19.17;;;;;;;-2.26;86.01;96458.19;5084832;28;20094;-72
2023/01/29 04:03:38;;;;;;;20.30;18.20;;;;;;;-2.25;85.18;96467.63;5082425;28;20031;-68
2023/01/29 04:06:19;;;;;;;20.73;18.63;;;;;;;-2.15;84.59;96468.19;5085820;28;20031;-68
2023/01/29 04:08:51;;;;;;;22.25;18.27;;;;;;;-2.10;82.82;96468.94;5088225;28;20437;-64
2023/01/29 04:11:20;;;;;;;23.02;19.70;;;;;;;-2.06;82.43;96467.94;5064265;28;20047;-63
2023/01/29 04:13:46;;;;;;;21.80;19.50;;;;;;;-2.12;82.73;96464.69;5083169;28;20035;-68
2023/01/29 04:16:17;;;;;;;22.33;19.92;;;;;;;-2.13;82.05;96463.84;5088003;28;20073;-68
2023/01/29 04:18:47;;;;;;;22.38;20.02;;;;;;;-2.19;82.69;96462.31;5084669;28;20506;-68
2023/01/29 04:21:13;;;;;;;24.45;21.85;;;;;;;-2.24;83.76;96468.50;5079531;28;20364;-69
2023/01/29 04:23:39;;;;;;;24.75;22.17;;;;;;;-2.35;85.11;96461.06;5074072;28;20024;-68
2023/01/29 04:26:23;;;;;;;25.30;22.52;;;;;;;-2.38;85.31;96459.41;5076787;28;20043;-68
2023/01/29 04:28:57;;;;;;;23.92;21.55;;;;;;;-2.37;85.99;96458.50;5077168;28;20032;-62
2023/01/29 04:31:31;;;;;;;25.60;22.90;;;;;;;-2.36;85.77;96454.22;5080753;28;20059;-68
2023/01/29 04:34:19;;;;;;;24.33;21.80;;;;;;;-2.34;86.38;96458.41;5085541;28;20749;-69
2023/01/29 04:37:09;;;;;;;29.45;26.40;;;;;;;-2.39;85.92;96455.13;5087740;28;20471;-69
2023/01/29 04:39:57;;;;;;;25.25;22.55;;;;;;;-2.41;85.20;96449.16;5085131;28;20509;-69
2023/01/29 04:42:45;;;;;;;32.92;25.85;;;;;;;-2.42;84.93;96441.50;5080408;28;20103;-68
2023/01/29 04:45:14;;;;;;;37.38;29.02;;;;;;;-2.42;84.39;96441.50;5086626;28;20039;-68
2023/01/29 04:48:27;;;;;;;52.58;39.00;;;;;;;-2.39;84.16;96441.41;5078854;28;20028;-64
2023/01/29 04:51:14;;;;;;;23.92;21.25;;;;;;;-2.47;82.23;96439.88;5084754;28;20036;-61
2023/01/29 04:53:49;;;;;;;20.35;18.25;;;;;;;-2.50;82.76;96437.38;5076904;28;20407;-62
2023/01/29 04:56:36;;;;;;;21.40;19.15;;;;;;;-2.52;82.78;96449.47;5060245;28;20028;-62
2023/01/29 04:59:08;;;;;;;21.25;19.02;;;;;;;-2.52;83.39;96440.91;5086712;28;20040;-62
2023/01/29 05:01:36;;;;;;;21.73;19.50;;;;;;;-2.51;83.63;96429.72;5090663;28;20072;-62
2023/01/29 05:04:06;;;;;;;22.08;19.73;;;;;;;-2.45;83.92;96434.69;5086749;28;20050;-62
2023/01/29 05:06:32;;;;;;;21.90;19.52;;;;;;;-2.49;84.28;96451.97;5093017;28;20032;-60
2023/01/29 05:08:59;;;;;;;19.83;17.70;;;;;;;-2.51;84.60;96450.34;5088801;28;20085;-62
2023/01/29 05:11:25;;;;;;;21.13;18.40;;;;;;;-2.49;83.67;96448.56;5066071;28;20124;-65
2023/01/29 05:13:51;;;;;;;20.98;18.77;;;;;;;-2.52;84.61;96448.66;5090864;28;20115;-66
2023/01/29 05:16:26;;;;;;;21.55;19.35;;;;;;;-2.38;84.38;96450.84;5082589;28;20035;-65
2023/01/29 05:18:52;;;;;;;21.52;19.35;;;;;;;-2.41;84.85;96451.75;5095761;28;20753;-65
2023/01/29 05:21:19;;;;;;;23.15;20.02;;;;;;;-2.42;84.80;96454.38;5088645;28;20063;-66
2023/01/29 05:23:56;;;;;;;20.83;18.75;;;;;;;-2.49;84.47;96453.72;5088087;28;20023;-65
2023/01/29 05:29:05;;;;;;;20.33;18.23;;;;;;;-2.49;82.41;96453.72;5088628;28;20507;-64
2023/01/29 05:31:31;;;;;;;21.20;19.02;;;;;;;-2.49;83.40;96457.13;5085091;28;20032;-60
2023/01/29 05:33:56;;;;;;;21.77;19.58;;;;;;;-2.49;82.55;96454.53;5084135;28;20020;-60
2023/01/29 05:36:21;;;;;;;23.35;20.70;;;;;;;-2.50;83.41;96458.00;5089121;28;20024;-59
2023/01/29 05:38:47;;;;;;;23.17;19.90;;;;;;;-2.55;84.13;96459.88;5084692;28;20032;-59
2023/01/29 05:41:12;;;;;;;22.73;20.35;;;;;;;-2.56;83.57;96462.50;5090657;28;20043;-59
2023/01/29 05:43:37;;;;;;;21.73;19.52;;;;;;;-2.56;83.57;96471.09;5084307;28;20131;-60
2023/01/29 05:46:03;;;;;;;21.52;19.33;;;;;;;-2.52;83.67;96464.13;5087553;28;20055;-60
2023/01/29 05:48:30;;;;;;;23.20;19.58;;;;;;;-2.63;83.63;96477.31;5095974;28;20048;-64
2023/01/29 05:51:00;;;;;;;20.88;18.75;;;;;;;-2.65;83.40;96479.91;5076744;28;20149;-65
2023/01/29 05:53:28;;;;;;;21.63;19.42;;;;;;;-2.67;83.23;96483.41;5081476;28;20044;-65
2023/01/29 05:55:55;;;;;;;23.20;19.58;;;;;;;-2.74;83.69;96480.19;5085015;28;20032;-64
2023/01/29 05:58:21;;;;;;;25.35;21.48;;;;;;;-2.75;84.70;96479.31;5088402;28;20118;-64
2023/01/29 06:00:47;;;;;;;24.90;19.40;;;;;;;-2.49;83.10;96474.34;5089991;28;20112;-65
2023/01/29 06:03:12;;;;;;;25.08;20.13;;;;;;;-2.65;83.43;96474.75;5091457;28;20117;-65
2023/01/29 06:05:38;;;;;;;23.73;21.30;;;;;;;-2.62;83.45;96486.72;5092054;28;20052;-63
2023/01/29 06:08:04;;;;;;;26.38;21.92;;;;;;;-2.71;83.86;96481.81;5095694;28;20023;-64
2023/01/29 06:10:29;;;;;;;22.35;19.95;;;;;;;-2.60;83.65;96478.06;5090734;28;20024;-62
2023/01/29 06:12:55;;;;;;;23.48;21.15;;;;;;;-2.67;83.80;96489.44;5085391;28;20041;-63
2023/01/29 06:15:20;;;;;;;23.55;19.52;;;;;;;-2.75;83.64;96492.19;5087296;28;20449;-63
2023/01/29 06:17:46;;;;;;;24.95;22.20;;;;;;;-2.77;84.15;96493.13;5081853;28;20766;-62
2023/01/29 06:20:11;;;;;;;30.35;27.00;;;;;;;-2.84;84.96;96499.31;5088678;28;20019;-63
2023/01/29 06:22:36;;;;;;;33.35;27.48;;;;;;;-2.82;85.06;96500.13;5087322;28;20120;-62
2023/01/29 06:25:02;;;;;;;27.48;24.40;;;;;;;-2.91;85.88;96507.22;5071963;28;20051;-62
2023/01/29 06:27:28;;;;;;;29.75;25.40;;;;;;;-2.83;84.29;96506.19;5081636;28;20099;-64
2023/01/29 06:29:54;;;;;;;31.02;24.65;;;;;;;-2.89;85.20;96507.16;5078963;28;20064;-64
2023/01/29 06:32:20;;;;;;;27.98;24.95;;;;;;;-2.92;85.87;96509.84;5057389;28;20101;-65
2023/01/29 06:34:48;;;;;;;30.25;26.63;;;;;;;-2.90;86.67;96515.78;5071084;28;20111;-65
2023/01/29 06:37:13;;;;;;;23.80;21.15;;;;;;;-2.88;85.19;96529.47;5074723;28;20107;-65
2023/01/29 06:39:40;;;;;;;26.30;23.55;;;;;;;-2.86;85.43;96526.88;5079326;28;20509;-65
2023/01/29 06:42:05;;;;;;;24.85;21.85;;;;;;;-2.93;85.65;96537.34;5051098;28;20407;-65
2023/01/29 06:44:31;;;;;;;27.95;23.73;;;;;;;-2.98;84.42;96546.94;5089081;28;20192;-61
2023/01/29 06:46:56;;;;;;;23.95;21.33;;;;;;;-2.99;84.61;96545.22;5086567;28;20478;-62
2023/01/29 06:49:22;;;;;;;27.30;23.05;;;;;;;-2.95;84.82;96546.00;5089108;28;20106;-63
2023/01/29 06:51:47;;;;;;;22.88;20.50;;;;;;;-2.97;84.87;96555.50;5086132;28;20066;-62
2023/01/29 06:54:12;;;;;;;24.00;20.83;;;;;;;-2.98;83.71;96572.69;5085735;28;20409;-63
2023/01/29 06:56:38;;;;;;;26.17;20.58;;;;;;;-2.97;83.31;96576.09;5079980;28;20452;-63
2023/01/29 06:59:03;;;;;;;30.35;21.05;;;;;;;-2.96;83.63;96582.94;5083162;28;20072;-63
2023/01/29 07:01:29;;;;;;;23.52;21.02;;;;;;;-2.81;83.66;96576.56;5092249;28;20629;-63
2023/01/29 07:03:54;;;;;;;24.73;22.10;;;;;;;-2.74;82.66;96567.81;5059612;28;20028;-65
2023/01/29 07:06:19;;;;;;;24.38;21.70;;;;;;;-2.83;82.90;96581.78;5090824;28;20024;-62
2023/01/29 07:08:45;;;;;;;25.05;21.75;;;;;;;-2.86;83.84;96581.88;5087582;28;20043;-62
2023/01/29 07:11:10;;;;;;;29.60;25.02;;;;;;;-2.82;85.01;96583.47;5081970;28;20405;-63
2023/01/29 07:13:36;;;;;;;26.73;23.70;;;;;;;-2.94;85.25;96586.34;5091437;28;20422;-61
2023/01/29 07:16:04;;;;;;;27.30;24.40;;;;;;;-2.94;86.25;96591.50;5091128;28;20024;-62
2023/01/29 07:18:30;;;;;;;29.77;24.60;;;;;;;-3.02;86.83;96596.81;5091034;28;20123;-62
2023/01/29 07:20:56;;;;;;;32.92;28.02;;;;;;;-3.02;86.96;96591.66;5090693;28;20158;-62
2023/01/29 07:23:22;;;;;;;37.67;29.35;;;;;;;-3.08;87.96;96590.13;5090429;28;20024;-65
2023/01/29 07:25:50;;;;;;;32.45;28.35;;;;;;;-3.09;88.31;96587.56;5090402;28;20027;-66
2023/01/29 07:28:22;;;;;;;37.88;30.77;;;;;;;-3.07;88.49;96590.94;5072063;28;20046;-65
2023/01/29 07:30:47;;;;;;;34.22;25.70;;;;;;;-3.06;88.06;96597.78;5090795;28;20031;-66
2023/01/29 07:33:12;;;;;;;34.13;27.88;;;;;;;-3.04;88.33;96596.88;5090178;28;20386;-67
2023/01/29 07:35:40;;;;;;;32.72;26.42;;;;;;;-3.00;88.35;96597.63;5091127;28;20405;-66
2023/01/29 07:38:06;;;;;;;27.38;24.33;;;;;;;-2.98;88.74;96595.91;5090645;28;20032;-66
2023/01/29 07:40:32;;;;;;;31.35;25.20;;;;;;;-2.95;89.10;96597.53;5090753;28;20020;-65
2023/01/29 07:43:03;;;;;;;31.15;24.80;;;;;;;-2.86;88.46;96604.19;5090454;28;20081;-59
2023/01/29 07:45:29;;;;;;;31.80;25.15;;;;;;;-2.83;89.01;96602.41;5082606;28;20417;-65
2023/01/29 07:47:55;;;;;;;29.42;25.05;;;;;;;-2.79;89.73;96610.88;5089644;28;20048;-65
2023/01/29 07:50:23;;;;;;;24.88;22.23;;;;;;;-2.71;88.55;96614.16;5090503;28;20059;-64
2023/01/29 07:52:48;;;;;;;25.63;22.83;;;;;;;-2.66;87.64;96616.59;5090392;28;20405;-65
2023/01/29 07:55:14;;;;;;;25.42;22.75;;;;;;;-2.64;86.82;96620.00;5090441;28;20089;-65
2023/01/29 07:57:39;;;;;;;27.13;23.08;;;;;;;-2.65;86.83;96629.44;5090418;28;20073;-64
2023/01/29 08:00:05;;;;;;;27.50;23.58;;;;;;;-2.64;87.18;96633.72;5090508;28;20484;-64
2023/01/29 08:02:30;;;;;;;27.23;22.63;;;;;;;-2.58;87.04;96648.19;5095314;28;20043;-60
2023/01/29 08:04:55;;;;;;;26.80;23.10;;;;;;;-2.55;86.26;96652.41;5090660;28;20027;-71
2023/01/29 08:07:21;;;;;;;25.25;22.63;;;;;;;-2.50;86.49;96648.00;5089799;28;20012;-70
2023/01/29 08:09:46;;;;;;;28.15;24.55;;;;;;;-2.45;86.57;96651.31;5088973;28;20077;-70
2023/01/29 08:12:12;;;;;;;25.95;22.50;;;;;;;-2.40;85.00;96652.03;5090017;28;20528;-70
2023/01/29 08:14:37;;;;;;;24.77;22.05;;;;;;;-2.27;85.09;96641.44;5090162;28;20454;-70
2023/01/29 08:17:03;;;;;;;25.27;21.48;;;;;;;-2.27;84.37;96649.16;5089924;28;20028;-70
2023/01/29 08:19:28;;;;;;;24.52;21.80;;;;;;;-2.20;84.39;96648.09;5090232;28;20054;-70
2023/01/29 08:21:53;;;;;;;28.33;25.25;;;;;;;-2.13;83.82;96647.06;5087557;28;20031;-70
2023/01/29 08:24:19;;;;;;;27.67;23.02;;;;;;;-2.03;83.21;96647.66;5071276;28;20028;-59
2023/01/29 08:26:44;;;;;;;24.88;22.08;;;;;;;-1.98;82.17;96639.78;5089879;28;20450;-59
2023/01/29 08:29:10;;;;;;;27.33;22.60;;;;;;;-1.92;82.22;96647.34;5089098;28;20566;-59
2023/01/29 08:31:36;;;;;;;26.27;23.35;;;;;;;-1.95;82.32;96644.88;5079290;28;20390;-59
2023/01/29 08:34:01;;;;;;;27.02;22.80;;;;;;;-1.96;80.48;96638.88;5086973;28;20043;-60
2023/01/29 08:36:26;;;;;;;24.40;21.90;;;;;;;-1.94;78.95;96628.50;5088827;28;20043;-59
2023/01/29 08:38:52;;;;;;;39.28;22.23;;;;;;;-1.85;79.74;96628.25;5089911;28;20051;-69
2023/01/29 08:41:17;;;;;;;24.83;22.13;;;;;;;-1.66;80.21;96625.13;5089316;28;20024;-63
2023/01/29 08:43:42;;;;;;;26.85;22.30;;;;;;;-1.50;79.46;96625.56;5089135;28;20043;-65
2023/01/29 08:46:08;;;;;;;22.63;20.23;;;;;;;-1.36;79.02;96622.56;5095082;28;20032;-67
2023/01/29 08:48:33;;;;;;;23.00;20.50;;;;;;;-1.28;78.94;96614.59;5089455;28;20051;-66
2023/01/29 08:51:01;;;;;;;23.55;20.75;;;;;;;-1.11;77.95;96606.31;5089168;28;20036;-66
2023/01/29 08:53:26;;;;;;;26.45;23.60;;;;;;;-1.10;77.51;96595.94;5088448;28;20051;-67
2023/01/29 08:55:51;;;;;;;25.73;22.63;;;;;;;-1.16;76.67;96591.78;5086652;28;20051;-66
2023/01/29 08:58:17;;;;;;;28.27;25.15;;;;;;;-1.33;76.36;96594.91;5088218;28;20026;-62
2023/01/29 09:00:43;;;;;;;24.50;21.83;;;;;;;-1.35;77.07;96585.50;5088025;28;20071;-74
2023/01/29 09:03:08;;;;;;;25.08;22.48;;;;;;;-1.27;77.55;96575.75;5091269;28;20365;-62
2023/01/29 09:05:35;;;;;;;24.92;22.30;;;;;;;-1.21;78.72;96585.06;5083274;28;20028;-62
2023/01/29 09:08:00;;;;;;;23.35;21.00;;;;;;;-1.17;78.41;96579.75;5089212;28;20056;-62
2023/01/29 09:10:26;;;;;;;23.60;20.33;;;;;;;-1.10;77.37;96574.38;5096298;28;20059;-61
2023/01/29 09:12:51;;;;;;;23.00;20.55;;;;;;;-1.03;74.91;96571.56;5096942;28;20436;-62
2023/01/29 09:15:17;;;;;;;24.38;21.75;;;;;;;-0.80;74.84;96574.28;5090857;28;20122;-63
2023/01/29 09:17:42;;;;;;;25.23;22.08;;;;;;;-0.53;74.84;96571.69;5095009;28;20036;-71
2023/01/29 09:20:09;;;;;;;30.33;25.77;;;;;;;-0.33;73.42;96581.34;5095283;28;20099;-62
2023/01/29 09:22:34;;;;;;;30.45;27.02;;;;;;;-0.36;72.81;96587.47;5089835;28;20055;-63
2023/01/29 09:25:00;;;;;;;27.67;23.60;;;;;;;-0.51;71.81;96591.44;5093158;28;20090;-63
2023/01/29 09:27:25;;;;;;;28.25;25.30;;;;;;;-0.61;73.19;96605.56;5092464;28;20447;-63
2023/01/29 09:29:51;;;;;;;31.10;27.40;;;;;;;-0.63;74.35;96612.56;5091716;28;20060;-63
2023/01/29 09:32:16;;;;;;;33.30;27.15;;;;;;;-0.60;74.33;96602.94;5090432;28;20080;-63
2023/01/29 09:34:41;;;;;;;30.90;27.33;;;;;;;-0.52;75.13;96614.78;5090763;28;20032;-63
2023/01/29 09:37:07;;;;;;;29.92;26.83;;;;;;;-0.50;74.66;96616.41;5084529;28;20016;-63
2023/01/29 09:39:32;;;;;;;30.13;26.85;;;;;;;-0.50;73.81;96629.34;5090987;28;20055;-64
2023/01/29 09:42:25;;;;;;;52.53;41.25;;;;;;;-0.34;74.13;96639.19;5095054;28;20051;-63
2023/01/29 09:45:12;;;;;;;34.53;29.23;;;;;;;-0.07;74.48;96645.16;5094170;28;20386;-63
2023/01/29 09:47:37;;;;;;;47.83;41.33;;;;;;;-0.25;76.94;96653.56;5091435;28;20034;-63
2023/01/29 09:50:15;;;;;;;35.90;31.73;;;;;;;-0.32;78.76;96658.09;5095094;28;20059;-64
2023/01/29 09:53:09;;;;;;;37.33;32.00;;;;;;;-0.38;78.15;96668.66;5093846;28;20016;-63
2023/01/29 09:56:00;;;;;;;39.22;34.25;;;;;;;-0.48;79.26;96656.00;5095150;28;20032;-63
2023/01/29 09:58:32;;;;;;;33.95;30.38;;;;;;;-0.33;79.12;96667.63;5092358;28;20089;-67
2023/01/29 10:01:10;;;;;;;35.53;31.83;;;;;;;-0.34;77.78;96672.81;5094787;28;20081;-68
2023/01/29 10:03:42;;;;;;;38.83;30.98;;;;;;;-0.40;78.30;96676.44;5095583;28;20103;-67
2023/01/29 10:06:24;;;;;;;37.63;33.72;;;;;;;-0.50;78.78;96686.25;5093567;28;20409;-67
2023/01/29 10:09:30;;;;;;;33.75;29.90;;;;;;;-0.30;77.70;96687.34;5091874;28;20494;-67
2023/01/29 10:12:01;;;;;;;33.05;29.15;;;;;;;-0.25;77.74;96687.22;5091496;28;20101;-67
2023/01/29 10:14:39;;;;;;;35.28;30.08;;;;;;;-0.22;78.14;96694.88;5098617;28;20382;-67
2023/01/29 10:17:23;;;;;;;36.15;31.10;;;;;;;-0.20;77.03;96691.34;5095736;28;20020;-63
2023/01/29 10:20:02;;;;;;;35.70;30.15;;;;;;;-0.16;78.40;96686.88;5103526;27;20064;-71
2023/01/29 10:22:51;;;;;;;33.97;30.33;;;;;;;0.03;77.18;96689.72;5098307;28;20031;-71
2023/01/29 10:25:19;;;;;;;32.38;28.58;;;;;;;0.07;77.20;96677.50;5093090;28;20028;-72
2023/01/29 10:27:57;;;;;;;39.40;32.97;;;;;;;0.04;77.25;96675.00;5098924;28;20551;-70
2023/01/29 10:30:43;;;;;;;34.60;30.65;;;;;;;0.08;77.33;96667.09;5093358;28;20032;-71
2023/01/29 10:33:15;;;;;;;;;;;;;;;0.05;76.48;96666.34;5093685;28;20130;-69
2023/01/29 10:35:45;;;;;;;33.78;30.15;;;;;;;0.03;76.12;96668.16;5093053;28;20008;-66
2023/01/29 10:38:44;;;;;;;32.10;27.20;;;;;;;0.28;75.24;96653.41;5103067;28;20027;-68
2023/01/29 10:41:09;;;;;;;33.85;27.23;;;;;;;0.36;74.38;96654.91;5039728;28;20043;-64
2023/01/29 10:43:49;;;;;;;29.60;26.48;;;;;;;0.26;75.16;96652.63;5095374;28;20066;-66
2023/01/29 10:46:53;;;;;;;30.45;27.00;;;;;;;0.30;74.07;96655.97;5093258;28;20051;-66
2023/01/29 10:49:29;;;;;;;32.13;27.25;;;;;;;0.37;74.30;96648.84;5066876;28;20065;-69
2023/01/29 10:52:25;;;;;;;35.28;26.55;;;;;;;0.82;72.04;96647.16;5092546;28;20035;-70
2023/01/29 10:55:24;;;;;;;31.50;28.02;;;;;;;0.46;70.72;96651.06;5091937;28;20035;-72
2023/01/29 10:58:14;;;;;;;31.95;26.83;;;;;;;0.48;70.43;96654.44;5068909;28;20059;-63
2023/01/29 11:00:41;;;;;;;26.73;23.80;;;;;;;0.27;71.80;96643.97;5091983;28;20020;-63
2023/01/29 11:03:29;;;;;;;28.70;24.45;;;;;;;0.36;71.43;96647.16;5094847;28;20034;-63
2023/01/29 11:05:57;;;;;;;27.00;24.10;;;;;;;0.22;71.66;96643.28;5043694;28;20032;-63
2023/01/29 11:08:27;;;;;;;32.58;26.42;;;;;;;0.14;72.08;96645.31;5090972;28;20060;-62
2023/01/29 11:11:23;;;;;;;27.75;24.77;;;;;;;0.08;72.38;96645.50;5086715;28;20043;-63
2023/01/29 11:14:15;;;;;;;28.10;24.38;;;;;;;0.12;73.24;96647.94;5086886;28;20034;-63
2023/01/29 11:16:46;;;;;;;28.60;24.40;;;;;;;0.36;72.20;96644.56;5082636;28;20024;-63
2023/01/29 11:19:13;;;;;;;27.83;24.63;;;;;;;0.51;72.13;96638.78;5090150;28;20031;-63
2023/01/29 11:22:00;;;;;;;28.33;25.35;;;;;;;0.56;71.28;96638.63;5089553;28;20032;-63
2023/01/29 11:24:26;;;;;;;27.05;24.30;;;;;;;0.71;69.07;96637.19;5089992;28;20502;-63
2023/01/29 11:26:56;;;;;;;29.63;23.50;;;;;;;0.63;69.91;96641.84;5089460;28;20032;-63
2023/01/29 11:29:32;;;;;;;24.95;22.40;;;;;;;0.69;68.92;96641.59;5089752;28;20115;-63
2023/01/29 11:31:59;;;;;;;27.40;23.83;;;;;;;0.85;69.90;96642.72;5090031;28;20024;-63
2023/01/29 11:34:31;;;;;;;27.85;23.55;;;;;;;0.93;69.70;96645.03;5089331;28;20038;-60
2023/01/29 11:37:00;;;;;;;25.48;22.77;;;;;;;0.97;68.77;96633.63;5089661;28;20027;-66
2023/01/29 11:39:27;;;;;;;32.35;26.05;;;;;;;1.14;69.05;96648.50;5089326;28;20039;-66
2023/01/29 11:41:59;;;;;;;34.10;30.60;;;;;;;1.03;69.28;96640.31;5089586;28;20113;-67
2023/01/29 11:44:33;;;;;;;32.45;27.77;;;;;;;1.11;70.85;96630.47;5088930;28;20048;-67
2023/01/29 11:47:19;;;;;;;28.95;25.83;;;;;;;1.25;70.08;96631.69;5089540;28;20041;-67
2023/01/29 11:49:48;;;;;;;29.10;26.02;;;;;;;1.31;70.03;96639.22;5089276;28;20016;-66
2023/01/29 11:52:17;;;;;;;29.30;25.02;;;;;;;1.21;69.35;96623.19;5089003;28;20493;-60
2023/01/29 11:54:58;;;;;;;28.88;25.02;;;;;;;1.01;69.30;96626.56;5089144;28;20012;-64
2023/01/29 11:57:28;;;;;;;29.50;25.00;;;;;;;0.97;69.00;96625.84;5088937;28;20036;-66
2023/01/29 11:59:58;;;;;;;27.52;24.58;;;;;;;1.03;69.49;96634.28;5089206;28;20027;-66
2023/01/29 12:02:37;;;;;;;33.20;27.92;;;;;;;1.16;69.55;96630.31;5092485;28;20028;-67